Time;durP1;ratioP1;P1;durP2;ratioP2;P2;SDS_P1;SDS_P2;PMS_P1;PMS_P2;Temp;Humidity;BMP_temperature;BMP_pressure;BME280_temperature;BME280_humidity;BME280_pressure;Samples;Min_cycle;Max_cycle;Signal;HPM_P1;HPM_P2
2021/04/07 00:00:30;;;;;;;20.25;9.35;;;;;;;;;;5032652;28;20024;-85
2021/04/07 00:02:56;;;;;;;30.13;11.45;;;;;;;;;;5031905;28;20024;-84
2021/04/07 00:05:22;;;;;;;27.50;9.70;;;;;;;;;;5031926;28;20457;-83
2021/04/07 00:07:51;;;;;;;22.08;11.02;;;;;;;;;;5031423;28;20421;-84
2021/04/07 00:10:17;;;;;;;25.92;9.45;;;;;;;;;;5050188;28;20025;-82
2021/04/07 00:12:42;;;;;;;29.25;8.82;;;;;;;;;;5050262;28;20445;-81
2021/04/07 00:15:12;;;;;;;25.08;8.93;;;;;;;;;;5047368;28;20074;-81
2021/04/07 00:17:37;;;;;;;24.57;8.20;;;;;;;;;;5050298;28;20021;-82
2021/04/07 00:20:07;;;;;;;17.20;8.45;;;;;;;;;;5051347;28;20078;-83
2021/04/07 00:22:32;;;;;;;19.33;8.87;;;;;;;;;;5068336;28;20025;-80
2021/04/07 00:24:57;;;;;;;24.88;10.05;;;;;;;;;;5070783;28;20024;-82
2021/04/07 00:27:26;;;;;;;27.25;11.15;;;;;;;;;;5034449;28;20525;-83
2021/04/07 00:29:52;;;;;;;24.27;9.43;;;;;;;;;;5025337;28;20025;-82
2021/04/07 00:32:17;;;;;;;25.13;9.82;;;;;;;;;;5042675;28;20017;-83
2021/04/07 00:34:42;;;;;;;20.88;7.60;;;;;;;;;;5049248;28;20056;-83
2021/04/07 00:37:07;;;;;;;21.17;9.52;;;;;;;;;;5031623;28;20032;-83
2021/04/07 00:39:32;;;;;;;26.90;10.98;;;;;;;;;;5048430;28;20100;-82
2021/04/07 00:42:02;;;;;;;37.08;13.23;;;;;;;;;;5032948;28;20055;-81
2021/04/07 00:44:27;;;;;;;24.33;10.37;;;;;;;;;;5031808;28;20029;-83
2021/04/07 00:46:52;;;;;;;24.63;9.70;;;;;;;;;;5030366;28;20087;-84
2021/04/07 00:49:17;;;;;;;19.98;8.55;;;;;;;;;;5030018;28;20027;-83
2021/04/07 00:51:44;;;;;;;28.08;10.00;;;;;;;;;;5031445;28;20048;-84
2021/04/07 00:54:09;;;;;;;20.98;9.60;;;;;;;;;;5049191;28;20027;-84
2021/04/07 00:56:34;;;;;;;24.88;10.52;;;;;;;;;;5047838;28;20028;-83
2021/04/07 00:59:00;;;;;;;24.40;11.35;;;;;;;;;;5030867;28;20055;-84
2021/04/07 01:01:25;;;;;;;28.88;9.52;;;;;;;;;;5030520;28;20021;-84
2021/04/07 01:03:50;;;;;;;30.92;9.27;;;;;;;;;;5048497;28;20457;-81
2021/04/07 01:06:16;;;;;;;28.75;8.60;;;;;;;;;;5031016;28;20503;-84
2021/04/07 01:08:41;;;;;;;29.05;8.35;;;;;;;;;;5031191;28;20013;-83
2021/04/07 01:11:07;;;;;;;23.88;9.45;;;;;;;;;;5031852;28;20058;-82
2021/04/07 01:13:32;;;;;;;20.75;9.07;;;;;;;;;;5035665;28;20078;-83
2021/04/07 01:15:57;;;;;;;22.08;8.80;;;;;;;;;;5038172;28;20370;-84
2021/04/07 01:18:22;;;;;;;26.58;11.27;;;;;;;;;;5051321;28;20027;-82
2021/04/07 01:20:48;;;;;;;25.35;9.65;;;;;;;;;;5028013;28;20125;-82
2021/04/07 01:23:14;;;;;;;20.92;8.43;;;;;;;;;;5053012;28;20116;-84
2021/04/07 01:25:39;;;;;;;20.73;9.05;;;;;;;;;;5032229;28;20017;-82
2021/04/07 01:28:04;;;;;;;26.38;8.65;;;;;;;;;;5030053;28;20430;-84
2021/04/07 01:30:30;;;;;;;23.95;8.23;;;;;;;;;;5050394;28;20017;-83
2021/04/07 01:32:55;;;;;;;21.88;9.40;;;;;;;;;;5029961;28;20059;-83
2021/04/07 01:35:20;;;;;;;19.58;7.88;;;;;;;;;;5031156;28;20401;-84
2021/04/07 01:37:46;;;;;;;29.00;8.82;;;;;;;;;;5029793;28;20497;-83
2021/04/07 01:40:13;;;;;;;21.00;9.75;;;;;;;;;;5029786;28;20067;-82
2021/04/07 01:42:40;;;;;;;25.02;7.57;;;;;;;;;;5029885;28;20484;-83
2021/04/07 01:45:06;;;;;;;21.33;7.70;;;;;;;;;;5029217;28;20029;-82
2021/04/07 01:47:33;;;;;;;20.83;6.47;;;;;;;;;;5029640;28;20067;-82
2021/04/07 01:49:59;;;;;;;15.35;6.38;;;;;;;;;;5029284;28;20017;-83
2021/04/07 01:52:24;;;;;;;24.58;6.40;;;;;;;;;;5029433;28;20029;-82
2021/04/07 01:54:49;;;;;;;10.73;6.07;;;;;;;;;;5030403;28;20485;-83
2021/04/07 01:57:15;;;;;;;15.55;6.38;;;;;;;;;;5047858;22;20025;-64
2021/04/07 01:59:40;;;;;;;19.13;6.90;;;;;;;;;;5028027;28;20022;-64
2021/04/07 02:02:05;;;;;;;14.93;5.85;;;;;;;;;;5029125;28;20021;-64
2021/04/07 02:04:30;;;;;;;16.67;6.00;;;;;;;;;;5030463;28;20017;-65
2021/04/07 02:06:56;;;;;;;15.00;6.13;;;;;;;;;;5030246;28;20026;-64
2021/04/07 02:09:21;;;;;;;18.42;7.15;;;;;;;;;;5029475;28;20087;-63
2021/04/07 02:11:48;;;;;;;19.70;5.85;;;;;;;;;;5059034;22;20045;-66
2021/04/07 02:14:14;;;;;;;20.77;7.28;;;;;;;;;;5047379;28;20074;-64
2021/04/07 02:16:39;;;;;;;13.88;5.50;;;;;;;;;;5047160;28;20025;-63
2021/04/07 02:19:08;;;;;;;18.88;6.15;;;;;;;;;;5034082;28;20018;-64
2021/04/07 02:21:33;;;;;;;21.02;5.38;;;;;;;;;;5025013;28;20369;-64
2021/04/07 02:23:59;;;;;;;18.02;5.30;;;;;;;;;;5049737;28;20150;-64
2021/04/07 02:26:24;;;;;;;9.93;4.50;;;;;;;;;;5049671;28;20025;-64
2021/04/07 02:28:49;;;;;;;17.15;5.28;;;;;;;;;;5049254;28;20104;-63
2021/04/07 02:31:14;;;;;;;15.25;4.82;;;;;;;;;;5048780;28;20373;-63
2021/04/07 02:33:39;;;;;;;14.98;5.32;;;;;;;;;;5049332;28;20074;-66
2021/04/07 02:36:05;;;;;;;13.85;5.50;;;;;;;;;;5049796;28;20120;-64
2021/04/07 02:38:30;;;;;;;20.10;5.25;;;;;;;;;;5048083;28;20381;-64
2021/04/07 02:40:55;;;;;;;21.83;6.38;;;;;;;;;;5049085;28;20021;-63
2021/04/07 02:43:20;;;;;;;18.58;5.40;;;;;;;;;;5048994;28;20501;-64
2021/04/07 02:45:45;;;;;;;22.23;5.95;;;;;;;;;;5049018;28;20029;-63
2021/04/07 02:48:11;;;;;;;16.90;6.53;;;;;;;;;;5049257;28;20020;-63
2021/04/07 02:50:36;;;;;;;9.88;4.53;;;;;;;;;;5047293;28;20068;-64
2021/04/07 02:53:01;;;;;;;20.80;5.93;;;;;;;;;;5048756;28;20420;-63
2021/04/07 02:55:26;;;;;;;17.10;5.90;;;;;;;;;;5049259;28;20029;-65
2021/04/07 02:57:51;;;;;;;19.52;7.38;;;;;;;;;;5031192;28;20500;-62
2021/04/07 03:00:17;;;;;;;19.30;6.22;;;;;;;;;;5048672;28;20025;-64
2021/04/07 03:02:42;;;;;;;10.55;5.63;;;;;;;;;;5047643;28;20025;-63
2021/04/07 03:05:07;;;;;;;14.43;5.05;;;;;;;;;;5049624;28;20013;-63
2021/04/07 03:07:33;;;;;;;24.70;7.90;;;;;;;;;;5049523;28;20031;-67
2021/04/07 03:09:58;;;;;;;22.00;6.55;;;;;;;;;;5049299;28;20055;-65
2021/04/07 03:12:23;;;;;;;15.05;6.57;;;;;;;;;;5047118;28;20176;-64
2021/04/07 03:14:48;;;;;;;24.55;7.47;;;;;;;;;;5049359;28;20198;-65
2021/04/07 03:17:13;;;;;;;19.20;7.00;;;;;;;;;;5052687;28;20074;-64
2021/04/07 03:19:39;;;;;;;15.18;8.52;;;;;;;;;;5033995;28;20489;-66
2021/04/07 03:22:04;;;;;;;18.17;7.10;;;;;;;;;;5055989;28;20587;-64
2021/04/07 03:24:29;;;;;;;19.38;8.65;;;;;;;;;;5052444;28;20024;-67
2021/04/07 03:26:55;;;;;;;37.80;9.73;;;;;;;;;;5052072;28;20493;-63
2021/04/07 03:29:20;;;;;;;22.15;8.75;;;;;;;;;;5052531;28;20013;-63
2021/04/07 03:31:45;;;;;;;21.35;8.95;;;;;;;;;;5033970;28;20093;-64
2021/04/07 03:34:10;;;;;;;25.10;9.77;;;;;;;;;;5052629;28;20023;-66
2021/04/07 03:36:35;;;;;;;25.13;11.50;;;;;;;;;;5043418;28;20029;-63
2021/04/07 03:39:01;;;;;;;19.63;9.30;;;;;;;;;;5051669;28;20028;-64
2021/04/07 03:41:26;;;;;;;24.30;9.40;;;;;;;;;;5051865;28;20115;-66
2021/04/07 03:43:51;;;;;;;24.30;10.48;;;;;;;;;;5050822;28;20071;-64
2021/04/07 03:46:17;;;;;;;27.65;11.65;;;;;;;;;;5050753;28;20108;-63
2021/04/07 03:48:42;;;;;;;30.77;12.60;;;;;;;;;;5052245;28;20035;-65
2021/04/07 03:51:08;;;;;;;28.20;11.15;;;;;;;;;;5050662;28;20024;-63
2021/04/07 03:53:33;;;;;;;30.67;13.38;;;;;;;;;;5048799;28;20437;-64
2021/04/07 03:55:58;;;;;;;28.63;14.38;;;;;;;;;;5051900;28;20099;-63
2021/04/07 03:58:24;;;;;;;33.42;13.73;;;;;;;;;;5049969;28;20029;-65
2021/04/07 04:00:50;;;;;;;41.67;15.52;;;;;;;;;;5051442;28;20017;-63
2021/04/07 04:03:15;;;;;;;45.72;22.13;;;;;;;;;;5051407;28;20358;-63
2021/04/07 04:05:40;;;;;;;29.70;14.52;;;;;;;;;;5051983;28;20071;-64
2021/04/07 04:08:06;;;;;;;30.88;15.43;;;;;;;;;;5051017;28;20200;-63
2021/04/07 04:10:32;;;;;;;39.53;15.13;;;;;;;;;;5033380;28;20481;-66
2021/04/07 04:12:57;;;;;;;43.30;14.85;;;;;;;;;;5050842;28;20016;-65
2021/04/07 04:15:22;;;;;;;29.15;14.07;;;;;;;;;;5051258;28;20039;-64
2021/04/07 04:17:48;;;;;;;33.45;17.63;;;;;;;;;;5050860;28;20041;-63
2021/04/07 04:20:13;;;;;;;35.22;16.90;;;;;;;;;;5051800;28;20025;-63
2021/04/07 04:22:39;;;;;;;30.15;13.65;;;;;;;;;;5048475;28;20047;-63
2021/04/07 04:25:05;;;;;;;30.52;14.38;;;;;;;;;;5050755;28;20029;-64
2021/04/07 04:27:30;;;;;;;30.95;14.25;;;;;;;;;;5043391;28;20385;-64
2021/04/07 04:29:56;;;;;;;33.78;16.42;;;;;;;;;;5050961;28;20013;-64
2021/04/07 04:32:21;;;;;;;29.00;13.93;;;;;;;;;;5049892;28;20036;-64
2021/04/07 04:34:46;;;;;;;32.60;13.38;;;;;;;;;;5051336;28;20384;-63
2021/04/07 04:37:11;;;;;;;28.17;15.38;;;;;;;;;;5050400;28;20028;-63
2021/04/07 04:39:37;;;;;;;28.42;12.30;;;;;;;;;;5050626;28;20025;-64
2021/04/07 04:42:02;;;;;;;32.78;15.60;;;;;;;;;;5049375;28;20025;-64
2021/04/07 04:44:27;;;;;;;37.78;17.15;;;;;;;;;;5050850;28;20029;-64
2021/04/07 04:46:52;;;;;;;27.77;12.48;;;;;;;;;;5048779;28;20315;-64
2021/04/07 04:49:18;;;;;;;38.13;20.80;;;;;;;;;;5037751;28;20053;-65
2021/04/07 04:51:43;;;;;;;34.78;14.95;;;;;;;;;;5040104;28;20035;-63
2021/04/07 04:54:08;;;;;;;30.73;15.90;;;;;;;;;;5051000;28;20108;-64
2021/04/07 04:56:33;;;;;;;24.27;11.98;;;;;;;;;;5050586;28;20552;-64
2021/04/07 04:58:58;;;;;;;33.92;12.48;;;;;;;;;;5051013;28;20037;-65
2021/04/07 05:01:24;;;;;;;25.33;11.45;;;;;;;;;;5050085;28;20587;-63
2021/04/07 05:03:49;;;;;;;34.05;17.25;;;;;;;;;;5051418;28;20060;-66
2021/04/07 05:06:15;;;;;;;23.50;13.07;;;;;;;;;;5050161;28;20048;-64
2021/04/07 05:08:40;;;;;;;27.23;13.75;;;;;;;;;;5049823;28;20017;-64
2021/04/07 05:11:05;;;;;;;29.33;13.48;;;;;;;;;;5050333;28;20056;-66
2021/04/07 05:13:30;;;;;;;31.65;14.35;;;;;;;;;;5050202;28;20385;-64
2021/04/07 05:15:55;;;;;;;47.97;21.27;;;;;;;;;;5050151;28;20032;-64
2021/04/07 05:18:22;;;;;;;43.47;28.35;;;;;;;;;;5049710;28;20492;-64
2021/04/07 05:20:47;;;;;;;22.70;10.23;;;;;;;;;;5050251;28;20064;-64
2021/04/07 05:23:12;;;;;;;44.47;16.98;;;;;;;;;;5049053;28;20568;-64
2021/04/07 05:25:38;;;;;;;45.58;20.08;;;;;;;;;;5049957;28;20027;-65
2021/04/07 05:28:06;;;;;;;42.38;25.88;;;;;;;;;;5050130;28;20500;-64
2021/04/07 05:33:17;;;;;;;21.83;9.18;;;;;;;;;;5049877;28;20039;-64
2021/04/07 05:35:42;;;;;;;20.80;9.93;;;;;;;;;;5050373;28;20020;-65
2021/04/07 05:38:08;;;;;;;32.03;14.90;;;;;;;;;;5049406;28;20071;-65
2021/04/07 05:40:33;;;;;;;15.82;7.10;;;;;;;;;;5048935;28;20478;-64
2021/04/07 05:43:00;;;;;;;34.67;16.80;;;;;;;;;;5049037;28;20029;-64
2021/04/07 05:45:25;;;;;;;33.15;15.45;;;;;;;;;;5045821;28;20047;-64
2021/04/07 05:47:51;;;;;;;22.30;13.43;;;;;;;;;;5047262;28;20028;-65
2021/04/07 05:50:16;;;;;;;34.85;18.75;;;;;;;;;;5051885;28;20389;-65
2021/04/07 05:52:41;;;;;;;38.88;17.83;;;;;;;;;;5048179;28;20107;-65
2021/04/07 05:55:06;;;;;;;39.17;18.80;;;;;;;;;;5046575;28;20029;-66
2021/04/07 05:57:31;;;;;;;36.30;17.92;;;;;;;;;;5054783;28;20388;-66
2021/04/07 05:59:57;;;;;;;44.05;21.58;;;;;;;;;;5047393;28;20770;-63
2021/04/07 06:02:22;;;;;;;41.40;20.67;;;;;;;;;;5042994;28;20026;-66
2021/04/07 06:04:47;;;;;;;31.83;18.17;;;;;;;;;;5047508;28;20485;-64
2021/04/07 06:07:12;;;;;;;40.63;22.05;;;;;;;;;;5047404;28;20064;-65
2021/04/07 06:09:37;;;;;;;38.20;17.88;;;;;;;;;;5046406;28;20396;-64
2021/04/07 06:12:03;;;;;;;17.88;7.80;;;;;;;;;;5045749;28;20032;-65
2021/04/07 06:14:28;;;;;;;43.05;21.42;;;;;;;;;;5046849;28;20386;-65
2021/04/07 06:16:53;;;;;;;24.60;11.48;;;;;;;;;;5047072;28;20079;-66
2021/04/07 06:19:18;;;;;;;12.40;7.78;;;;;;;;;;5047295;28;20032;-65
2021/04/07 06:21:43;;;;;;;32.13;18.30;;;;;;;;;;5046763;28;20075;-66
2021/04/07 06:24:09;;;;;;;33.38;16.48;;;;;;;;;;5047252;28;20028;-65
2021/04/07 06:26:36;;;;;;;35.42;16.70;;;;;;;;;;5044445;28;20021;-64
2021/04/07 06:29:01;;;;;;;46.08;21.50;;;;;;;;;;5045027;28;20124;-66
2021/04/07 06:31:26;;;;;;;46.85;22.73;;;;;;;;;;5040795;28;20131;-66
2021/04/07 06:33:52;;;;;;;38.08;17.58;;;;;;;;;;5040480;28;20021;-66
2021/04/07 06:36:17;;;;;;;40.15;19.13;;;;;;;;;;5047508;28;20021;-66
2021/04/07 06:38:42;;;;;;;45.95;22.95;;;;;;;;;;5046097;28;20029;-65
2021/04/07 06:41:09;;;;;;;43.42;21.70;;;;;;;;;;5046694;28;20021;-66
2021/04/07 06:43:34;;;;;;;21.35;9.73;;;;;;;;;;5047534;28;20025;-64
2021/04/07 06:46:00;;;;;;;23.70;11.93;;;;;;;;;;5048693;28;20362;-65
2021/04/07 06:48:25;;;;;;;29.35;10.63;;;;;;;;;;5051343;28;20276;-66
2021/04/07 06:50:51;;;;;;;18.00;7.90;;;;;;;;;;5052503;28;20381;-65
2021/04/07 06:53:18;;;;;;;35.17;15.70;;;;;;;;;;5052557;28;20028;-66
2021/04/07 06:55:43;;;;;;;55.92;19.05;;;;;;;;;;5053904;28;20029;-65
2021/04/07 06:58:09;;;;;;;17.15;8.52;;;;;;;;;;5052560;28;20029;-66
2021/04/07 07:00:35;;;;;;;30.45;13.52;;;;;;;;;;5052328;28;20029;-66
2021/04/07 07:03:00;;;;;;;36.55;16.42;;;;;;;;;;5052729;28;20055;-66
2021/04/07 07:05:26;;;;;;;32.08;11.00;;;;;;;;;;5049328;28;20013;-65
2021/04/07 07:07:51;;;;;;;27.38;13.30;;;;;;;;;;5045435;28;20009;-63
2021/04/07 07:10:16;;;;;;;30.05;11.48;;;;;;;;;;5039500;28;20022;-65
2021/04/07 07:12:42;;;;;;;38.10;20.50;;;;;;;;;;5048990;28;20044;-66
2021/04/07 07:15:08;;;;;;;38.55;19.60;;;;;;;;;;5048077;28;20044;-70
2021/04/07 07:17:34;;;;;;;34.42;16.17;;;;;;;;;;5050326;28;20075;-64
2021/04/07 07:19:59;;;;;;;28.75;13.20;;;;;;;;;;5048881;28;20109;-65
2021/04/07 07:22:26;;;;;;;33.33;15.55;;;;;;;;;;5046934;28;20173;-65
2021/04/07 07:24:59;;;;;;;23.85;13.18;;;;;;;;;;5046421;28;20024;-66
2021/04/07 07:27:54;;;;;;;32.45;17.13;;;;;;;;;;5049552;28;20025;-65
2021/04/07 07:30:20;;;;;;;32.42;14.48;;;;;;;;;;5028992;28;20401;-65
2021/04/07 07:32:45;;;;;;;36.20;17.33;;;;;;;;;;5046989;28;20521;-66
2021/04/07 07:35:13;;;;;;;18.60;10.43;;;;;;;;;;5049501;28;20067;-66
2021/04/07 07:37:39;;;;;;;22.15;10.00;;;;;;;;;;5044684;28;20025;-66
2021/04/07 07:40:05;;;;;;;38.85;17.35;;;;;;;;;;5050479;28;20078;-65
2021/04/07 07:42:31;;;;;;;25.60;13.50;;;;;;;;;;5048493;28;20021;-67
2021/04/07 07:44:56;;;;;;;27.52;13.70;;;;;;;;;;5051857;28;20107;-64
2021/04/07 07:47:33;;;;;;;18.58;9.13;;;;;;;;;;5042506;28;20052;-67
2021/04/07 07:50:00;;;;;;;23.80;12.38;;;;;;;;;;5046259;28;20009;-68
2021/04/07 07:52:26;;;;;;;26.85;17.33;;;;;;;;;;5046844;28;20025;-67
2021/04/07 07:54:51;;;;;;;31.73;15.88;;;;;;;;;;5045212;28;20074;-69
2021/04/07 07:57:16;;;;;;;35.45;18.50;;;;;;;;;;5050776;28;20017;-64
2021/04/07 07:59:41;;;;;;;27.33;13.55;;;;;;;;;;5051002;28;20009;-68
2021/04/07 08:02:18;;;;;;;20.75;9.60;;;;;;;;;;5046920;28;20570;-67
2021/04/07 08:04:47;;;;;;;18.42;7.28;;;;;;;;;;5047385;28;20053;-65
2021/04/07 08:07:13;;;;;;;14.77;5.13;;;;;;;;;;5042509;28;20489;-66
2021/04/07 08:09:38;;;;;;;24.70;8.23;;;;;;;;;;5041092;28;20388;-66
2021/04/07 08:12:04;;;;;;;16.90;9.50;;;;;;;;;;5048816;28;20031;-65
2021/04/07 08:14:29;;;;;;;30.17;12.88;;;;;;;;;;5046076;28;21497;-64
2021/04/07 08:16:55;;;;;;;21.98;13.70;;;;;;;;;;5043850;28;20025;-64
2021/04/07 08:19:21;;;;;;;34.50;14.25;;;;;;;;;;5049822;28;20036;-65
2021/04/07 08:21:47;;;;;;;30.35;14.18;;;;;;;;;;5043797;28;20024;-64
2021/04/07 08:24:12;;;;;;;25.67;15.63;;;;;;;;;;5050268;28;20017;-66
2021/04/07 08:26:39;;;;;;;32.50;16.55;;;;;;;;;;5043599;28;20021;-65
2021/04/07 08:29:05;;;;;;;21.98;13.55;;;;;;;;;;5050041;28;20158;-65
2021/04/07 08:31:30;;;;;;;18.17;11.35;;;;;;;;;;5048516;28;20009;-64
2021/04/07 08:33:56;;;;;;;22.33;11.63;;;;;;;;;;5050739;28;20029;-65
2021/04/07 08:36:24;;;;;;;19.08;11.27;;;;;;;;;;5044799;28;20021;-67
2021/04/07 08:38:58;;;;;;;18.88;10.95;;;;;;;;;;5049262;28;20082;-64
2021/04/07 08:41:23;;;;;;;25.17;12.45;;;;;;;;;;5030728;28;20132;-64
2021/04/07 08:43:51;;;;;;;16.02;10.38;;;;;;;;;;5047189;28;20033;-64
2021/04/07 08:46:18;;;;;;;16.35;9.32;;;;;;;;;;5047899;28;20029;-64
2021/04/07 08:48:43;;;;;;;23.05;10.73;;;;;;;;;;5043607;28;20039;-65
2021/04/07 08:51:09;;;;;;;22.60;11.40;;;;;;;;;;5048067;28;20017;-64
2021/04/07 08:53:39;;;;;;;20.20;11.25;;;;;;;;;;5049866;28;20021;-64
2021/04/07 08:56:06;;;;;;;25.48;14.88;;;;;;;;;;5041374;28;20040;-65
2021/04/07 08:58:31;;;;;;;27.88;15.82;;;;;;;;;;5049444;28;20025;-64
2021/04/07 09:00:57;;;;;;;19.25;12.55;;;;;;;;;;5044768;28;20036;-65
2021/04/07 09:03:26;;;;;;;23.23;13.43;;;;;;;;;;5046039;28;20535;-66
2021/04/07 09:05:52;;;;;;;19.77;12.70;;;;;;;;;;5049682;28;20092;-65
2021/04/07 09:08:24;;;;;;;25.88;11.73;;;;;;;;;;5045051;28;20159;-64
2021/04/07 09:10:53;;;;;;;19.10;10.13;;;;;;;;;;5048390;28;20129;-64
2021/04/07 09:13:20;;;;;;;18.63;10.15;;;;;;;;;;5045563;28;20087;-64
2021/04/07 09:15:47;;;;;;;14.45;6.95;;;;;;;;;;5037961;28;20032;-65
2021/04/07 09:18:12;;;;;;;11.85;6.53;;;;;;;;;;5040668;28;20035;-65
2021/04/07 09:20:42;;;;;;;11.73;7.43;;;;;;;;;;5042423;28;20020;-65
2021/04/07 09:23:08;;;;;;;11.02;7.30;;;;;;;;;;5041163;28;20149;-64
2021/04/07 09:25:33;;;;;;;12.65;7.90;;;;;;;;;;5043819;28;20021;-64
2021/04/07 09:28:03;;;;;;;10.52;6.38;;;;;;;;;;5041218;28;20027;-65
2021/04/07 09:30:37;;;;;;;14.52;7.70;;;;;;;;;;5045557;28;20791;-65
2021/04/07 09:33:02;;;;;;;15.07;9.38;;;;;;;;;;5040339;28;20029;-64
2021/04/07 09:35:27;;;;;;;18.92;11.95;;;;;;;;;;5047411;28;20021;-64
2021/04/07 09:37:52;;;;;;;17.05;9.57;;;;;;;;;;5043154;28;20035;-65
2021/04/07 09:40:17;;;;;;;18.60;9.32;;;;;;;;;;5048161;28;20100;-65
2021/04/07 09:42:43;;;;;;;16.05;8.48;;;;;;;;;;5049160;28;20017;-65
2021/04/07 09:45:08;;;;;;;13.05;8.00;;;;;;;;;;5045953;28;20275;-65
2021/04/07 09:47:33;;;;;;;12.93;7.95;;;;;;;;;;5044356;28;20523;-65
2021/04/07 09:50:07;;;;;;;13.52;5.20;;;;;;;;;;5046271;28;20013;-66
2021/04/07 09:52:41;;;;;;;9.15;6.78;;;;;;;;;;5041677;28;20504;-65
2021/04/07 09:55:06;;;;;;;15.02;6.80;;;;;;;;;;5047705;28;20025;-65
2021/04/07 09:57:32;;;;;;;10.27;5.60;;;;;;;;;;5041804;28;20025;-65
2021/04/07 09:59:57;;;;;;;13.25;8.20;;;;;;;;;;5040636;28;20021;-66
2021/04/07 10:02:22;;;;;;;13.05;7.55;;;;;;;;;;5046634;28;20017;-65
2021/04/07 10:04:47;;;;;;;14.13;7.30;;;;;;;;;;5041373;28;20040;-65
2021/04/07 10:07:17;;;;;;;13.60;7.97;;;;;;;;;;5048271;28;20339;-64
2021/04/07 10:09:43;;;;;;;13.63;7.60;;;;;;;;;;5049714;28;20035;-66
2021/04/07 10:12:09;;;;;;;13.50;7.22;;;;;;;;;;5047037;28;20053;-65
2021/04/07 10:14:34;;;;;;;13.35;8.30;;;;;;;;;;5046306;28;20406;-66
2021/04/07 10:17:10;;;;;;;13.63;8.70;;;;;;;;;;5044080;28;20033;-64
2021/04/07 10:19:35;;;;;;;11.75;8.10;;;;;;;;;;5044330;28;20049;-64
2021/04/07 10:22:00;;;;;;;14.57;7.50;;;;;;;;;;5049492;28;20067;-67
2021/04/07 10:24:26;;;;;;;15.35;8.20;;;;;;;;;;5047061;28;20096;-65
2021/04/07 10:26:51;;;;;;;11.00;7.20;;;;;;;;;;5053371;28;20052;-65
2021/04/07 10:29:23;;;;;;;14.68;7.85;;;;;;;;;;5052334;28;20019;-65
2021/04/07 10:31:55;;;;;;;15.10;8.38;;;;;;;;;;5048161;28;20025;-65
2021/04/07 10:34:31;;;;;;;15.75;8.57;;;;;;;;;;5052423;28;20107;-67
2021/04/07 10:36:56;;;;;;;14.43;9.85;;;;;;;;;;5051384;28;20032;-65
2021/04/07 10:39:22;;;;;;;17.48;7.35;;;;;;;;;;5047876;28;20010;-66
2021/04/07 10:41:47;;;;;;;16.85;9.25;;;;;;;;;;5044800;28;20503;-65
2021/04/07 10:44:25;;;;;;;12.30;7.13;;;;;;;;;;5051165;28;20082;-65
2021/04/07 10:46:51;;;;;;;17.90;10.00;;;;;;;;;;5045705;28;20041;-64
2021/04/07 10:49:16;;;;;;;18.83;10.43;;;;;;;;;;5042582;28;20083;-65
2021/04/07 10:51:41;;;;;;;10.85;8.35;;;;;;;;;;5043170;28;20444;-65
2021/04/07 10:54:09;;;;;;;9.07;5.97;;;;;;;;;;5042203;28;20021;-65
2021/04/07 10:56:35;;;;;;;11.85;7.90;;;;;;;;;;5046548;28;20409;-65
2021/04/07 10:59:02;;;;;;;9.07;6.43;;;;;;;;;;5047661;28;20037;-65
2021/04/07 11:01:29;;;;;;;11.80;5.78;;;;;;;;;;5049267;28;20078;-66
2021/04/07 11:03:54;;;;;;;13.20;6.25;;;;;;;;;;5050688;28;20121;-65
2021/04/07 11:06:20;;;;;;;10.82;6.05;;;;;;;;;;5048540;28;20433;-66
2021/04/07 11:08:46;;;;;;;17.50;6.22;;;;;;;;;;5048994;28;20431;-65
2021/04/07 11:11:18;;;;;;;17.05;8.43;;;;;;;;;;5051544;28;20338;-64
2021/04/07 11:13:45;;;;;;;16.55;7.72;;;;;;;;;;5048275;28;20095;-66
2021/04/07 11:16:11;;;;;;;22.08;7.15;;;;;;;;;;5049585;28;20462;-65
2021/04/07 11:18:37;;;;;;;18.67;8.55;;;;;;;;;;5048693;28;20037;-65
2021/04/07 11:21:02;;;;;;;24.92;12.00;;;;;;;;;;5050738;28;20115;-66
2021/04/07 11:23:28;;;;;;;26.33;10.95;;;;;;;;;;5047626;28;20529;-64
2021/04/07 11:25:53;;;;;;;27.80;8.50;;;;;;;;;;5050409;28;20025;-67
2021/04/07 11:28:19;;;;;;;19.60;8.88;;;;;;;;;;5032159;28;20020;-65
2021/04/07 11:30:57;;;;;;;25.88;12.45;;;;;;;;;;5050747;28;20107;-65
2021/04/07 11:33:26;;;;;;;28.33;11.27;;;;;;;;;;5052632;28;20405;-65
2021/04/07 11:36:20;;;;;;;29.98;11.48;;;;;;;;;;5045339;28;20033;-65
2021/04/07 11:38:42;;;;;;;37.33;11.90;;;;;;;;;;5051241;28;20048;-65
2021/04/07 11:44:24;;;;;;;26.90;11.77;;;;;;;;;;5051508;28;20650;-65
2021/04/07 11:46:23;;;;;;;32.72;12.77;;;;;;;;;;5052038;28;20025;-66
2021/04/07 11:48:49;;;;;;;31.08;12.18;;;;;;;;;;5051640;28;20534;-65
2021/04/07 11:51:14;;;;;;;39.03;11.07;;;;;;;;;;5051891;28;20017;-65
2021/04/07 11:53:39;;;;;;;28.35;11.07;;;;;;;;;;5051837;28;20370;-65
2021/04/07 11:56:04;;;;;;;28.60;8.75;;;;;;;;;;5051891;28;20700;-65
2021/04/07 11:58:30;;;;;;;23.85;9.93;;;;;;;;;;5050239;28;20099;-66
2021/04/07 12:00:55;;;;;;;27.90;11.05;;;;;;;;;;5052098;28;20087;-65
2021/04/07 12:03:20;;;;;;;24.13;9.23;;;;;;;;;;5051978;28;20029;-66
2021/04/07 12:05:45;;;;;;;20.35;10.40;;;;;;;;;;5048810;28;20013;-65
2021/04/07 12:08:10;;;;;;;20.67;8.70;;;;;;;;;;5038237;28;20083;-65
2021/04/07 12:10:36;;;;;;;15.68;6.32;;;;;;;;;;5051497;28;20048;-65
2021/04/07 12:13:01;;;;;;;17.88;7.40;;;;;;;;;;5051291;28;20402;-66
2021/04/07 12:15:27;;;;;;;23.77;8.52;;;;;;;;;;5049482;28;20033;-65
2021/04/07 12:17:53;;;;;;;26.85;7.57;;;;;;;;;;5051552;28;20422;-64
2021/04/07 12:20:18;;;;;;;30.27;9.85;;;;;;;;;;5033115;28;20040;-65
2021/04/07 12:22:44;;;;;;;25.77;9.20;;;;;;;;;;5050987;28;20079;-66
2021/04/07 12:25:10;;;;;;;21.63;10.23;;;;;;;;;;5049839;28;20102;-64
2021/04/07 12:27:35;;;;;;;32.15;9.27;;;;;;;;;;5033290;28;20025;-65
2021/04/07 12:30:00;;;;;;;19.80;9.23;;;;;;;;;;5032947;28;20036;-65
2021/04/07 12:32:25;;;;;;;25.65;9.73;;;;;;;;;;5051055;28;20279;-65
2021/04/07 12:34:51;;;;;;;34.50;9.30;;;;;;;;;;5050779;28;20074;-65
2021/04/07 12:37:16;;;;;;;24.02;8.98;;;;;;;;;;5050610;28;20025;-64
2021/04/07 12:39:41;;;;;;;23.27;8.02;;;;;;;;;;5050306;28;20033;-65
2021/04/07 12:42:17;;;;;;;23.90;9.35;;;;;;;;;;5048202;28;20041;-64
2021/04/07 12:44:42;;;;;;;22.80;11.15;;;;;;;;;;5047594;28;20041;-65
2021/04/07 12:47:07;;;;;;;26.90;8.07;;;;;;;;;;5050639;28;20083;-66
2021/04/07 12:49:32;;;;;;;26.95;7.90;;;;;;;;;;5050539;28;20063;-65
2021/04/07 12:51:58;;;;;;;30.85;9.15;;;;;;;;;;5049597;28;20039;-66
2021/04/07 12:54:24;;;;;;;26.50;8.13;;;;;;;;;;5051254;28;20143;-65
2021/04/07 12:56:49;;;;;;;39.00;10.75;;;;;;;;;;5050765;28;20095;-64
2021/04/07 12:59:14;;;;;;;35.58;10.77;;;;;;;;;;5050809;28;20056;-66
2021/04/07 13:01:39;;;;;;;32.30;9.18;;;;;;;;;;5050662;28;20021;-64
2021/04/07 13:04:05;;;;;;;23.67;6.75;;;;;;;;;;5050712;28;20454;-65
2021/04/07 13:06:30;;;;;;;17.33;5.68;;;;;;;;;;5050517;28;20033;-64
2021/04/07 13:08:55;;;;;;;26.90;6.60;;;;;;;;;;5050258;28;20025;-65
2021/04/07 13:11:20;;;;;;;18.70;5.30;;;;;;;;;;5050389;28;20025;-64
2021/04/07 13:13:45;;;;;;;19.67;6.03;;;;;;;;;;5050475;28;20106;-65
2021/04/07 13:16:11;;;;;;;40.95;8.27;;;;;;;;;;5046454;28;20016;-65
2021/04/07 13:18:36;;;;;;;24.33;7.28;;;;;;;;;;5042840;28;20099;-64
2021/04/07 13:21:07;;;;;;;28.98;7.78;;;;;;;;;;5050332;28;20028;-65
2021/04/07 13:23:32;;;;;;;25.95;6.53;;;;;;;;;;5050151;28;20390;-65
2021/04/07 13:25:58;;;;;;;30.05;7.63;;;;;;;;;;5050144;28;20107;-65
2021/04/07 13:28:23;;;;;;;26.60;8.27;;;;;;;;;;5049775;28;20025;-65
2021/04/07 13:30:49;;;;;;;27.65;8.70;;;;;;;;;;5049716;28;20116;-65
2021/04/07 13:33:22;;;;;;;23.25;6.55;;;;;;;;;;5049136;28;20452;-66
2021/04/07 13:35:53;;;;;;;26.75;8.85;;;;;;;;;;5050192;28;20024;-65
2021/04/07 13:38:38;;;;;;;34.13;7.72;;;;;;;;;;5050059;28;20035;-64
2021/04/07 13:43:28;;;;;;;39.28;7.57;;;;;;;;;;5042780;28;20540;-64
2021/04/07 13:45:53;;;;;;;26.23;7.50;;;;;;;;;;5049335;28;20021;-65
2021/04/07 13:48:20;;;;;;;28.17;7.43;;;;;;;;;;5049555;28;20028;-65
2021/04/07 13:50:45;;;;;;;32.38;8.35;;;;;;;;;;5048890;28;20397;-65
2021/04/07 13:53:14;;;;;;;26.13;6.80;;;;;;;;;;5049074;28;20047;-65
2021/04/07 13:55:40;;;;;;;28.85;8.15;;;;;;;;;;5050054;28;20025;-65
2021/04/07 13:58:06;;;;;;;28.25;8.35;;;;;;;;;;5044859;28;20047;-66
2021/04/07 14:00:32;;;;;;;18.20;5.90;;;;;;;;;;5046728;28;20269;-64
2021/04/07 14:02:57;;;;;;;29.23;8.07;;;;;;;;;;5049664;28;20060;-65
2021/04/07 14:05:23;;;;;;;37.35;11.57;;;;;;;;;;5048774;28;20466;-66
2021/04/07 14:07:48;;;;;;;27.63;7.00;;;;;;;;;;5048922;28;20043;-65
2021/04/07 14:12:56;;;;;;;15.07;3.70;;;;;;;;;;5048359;28;20075;-62
2021/04/07 14:15:21;;;;;;;;;;;;;;;;;;5053300;28;20494;-62
2021/04/07 14:17:47;;;;;;;15.67;3.80;;;;;;;;;;5057576;28;19959;-62
2021/04/07 14:20:13;;;;;;;17.35;5.28;;;;;;;;;;5049342;28;20255;-62
2021/04/07 14:22:38;;;;;;;17.45;4.55;;;;;;;;;;5049857;28;20033;-61
2021/04/07 14:25:04;;;;;;;19.27;5.40;;;;;;;;;;5048872;28;20138;-62
2021/04/07 14:27:30;;;;;;;9.40;2.47;;;;;;;;;;5049065;28;20108;-63
2021/04/07 14:29:55;;;;;;;17.38;4.45;;;;;;;;;;5045708;28;20469;-62